createdAt,value
2016-06-14T00:00:01.475Z,86.1
2016-06-14T00:00:11.444Z,86.1
2016-06-14T00:00:21.444Z,86
2016-06-14T00:00:31.444Z,86.3
2016-06-14T00:00:41.428Z,86.3
2016-06-14T00:00:51.428Z,85.8
2016-06-14T00:01:01.432Z,86.3
2016-06-14T00:01:11.416Z,86.2
2016-06-14T00:01:21.416Z,86.3
2016-06-14T00:01:31.416Z,86.5
2016-06-14T00:01:41.401Z,85.6
2016-06-14T00:01:51.401Z,86.3
2016-06-14T00:02:01.388Z,85.7
2016-06-14T00:02:11.388Z,86.1
2016-06-14T00:02:21.388Z,86.2
2016-06-14T00:02:31.388Z,86.1
2016-06-14T00:02:41.388Z,86.2
2016-06-14T00:02:51.372Z,86.3
2016-06-14T00:03:01.374Z,86.4
2016-06-14T00:03:11.374Z,86
2016-06-14T00:03:21.359Z,86.2
2016-06-14T00:03:31.359Z,86
2016-06-14T00:03:41.343Z,86.1
2016-06-14T00:03:51.343Z,86
2016-06-14T00:04:01.332Z,85.5
2016-06-14T00:04:11.332Z,85.5
2016-06-14T00:04:21.332Z,85.8
2016-06-14T00:04:31.332Z,85.8
2016-06-14T00:04:41.316Z,85.6
2016-06-14T00:04:51.332Z,86.1
2016-06-14T00:05:01.302Z,86.3
2016-06-14T00:05:11.302Z,87.1
2016-06-14T00:05:21.287Z,86.4
2016-06-14T00:05:31.287Z,86.2
2016-06-14T00:05:41.302Z,85.9
2016-06-14T00:05:51.287Z,86
2016-06-14T00:06:01.291Z,85.6
2016-06-14T00:06:11.291Z,86
2016-06-14T00:06:21.291Z,86.5
2016-06-14T00:06:31.275Z,86.1
2016-06-14T00:06:41.275Z,86.4
2016-06-14T00:06:51.259Z,85.9
2016-06-14T00:07:01.247Z,85.8
2016-06-14T00:07:11.247Z,85.4
2016-06-14T00:07:21.247Z,85.8
2016-06-14T00:07:31.231Z,86.2
2016-06-14T00:07:41.231Z,86.3
2016-06-14T00:07:51.231Z,86.3
2016-06-14T00:08:01.219Z,86.3
2016-06-14T00:08:11.219Z,86
2016-06-14T00:08:21.219Z,86.3
2016-06-14T00:08:31.203Z,86.5
2016-06-14T00:08:41.203Z,86.6
2016-06-14T00:08:51.203Z,86.5
2016-06-14T00:09:01.206Z,86
2016-06-14T00:09:11.206Z,86
2016-06-14T00:09:21.190Z,86.4
2016-06-14T00:09:31.190Z,86.1
2016-06-14T00:09:41.175Z,86.2
2016-06-14T00:09:51.159Z,86
2016-06-14T00:10:01.162Z,86.3
2016-06-14T00:10:11.162Z,86.3
2016-06-14T00:10:21.162Z,86.6
2016-06-14T00:10:31.146Z,86.2
2016-06-14T00:10:41.146Z,86.8
2016-06-14T00:10:51.131Z,86.7
2016-06-14T00:11:01.149Z,86.2
2016-06-14T00:11:11.134Z,86
2016-06-14T00:11:21.134Z,86.2
2016-06-14T00:11:31.134Z,86.3
2016-06-14T00:11:41.118Z,86.5
2016-06-14T00:11:51.103Z,86.7
2016-06-14T00:12:01.107Z,86.8
2016-06-14T00:12:11.107Z,86.7
2016-06-14T00:12:21.107Z,86.2
2016-06-14T00:12:31.107Z,86.5
2016-06-14T00:12:41.091Z,86.2
2016-06-14T00:12:51.107Z,86.3
2016-06-14T00:13:01.077Z,86.3
2016-06-14T00:13:11.062Z,86.1
2016-06-14T00:13:20.921Z,86.3
2016-06-14T00:13:31.062Z,86.2
2016-06-14T00:13:41.062Z,86.3
2016-06-14T00:13:51.046Z,86.5
2016-06-14T00:14:01.049Z,86
2016-06-14T00:14:11.049Z,86.1
2016-06-14T00:14:21.049Z,86.3
2016-06-14T00:14:31.565Z,86.1
2016-06-14T00:14:40.893Z,86.3
2016-06-14T00:14:51.049Z,86
2016-06-14T00:15:01.069Z,86.3
2016-06-14T00:15:11.022Z,86.6
2016-06-14T00:15:21.006Z,86.2
2016-06-14T00:15:31.006Z,86.1
2016-06-14T00:15:41.006Z,86.5
2016-06-14T00:15:51.006Z,85.8
2016-06-14T00:16:01.008Z,85.6
2016-06-14T00:16:10.993Z,85.6
2016-06-14T00:16:20.977Z,85.9
2016-06-14T00:16:30.977Z,85.8
2016-06-14T00:16:40.977Z,86.4
2016-06-14T00:16:50.977Z,86.2
2016-06-14T00:17:00.965Z,86.3
2016-06-14T00:17:10.965Z,86.6
2016-06-14T00:17:20.981Z,86.1
2016-06-14T00:17:30.950Z,86.3
2016-06-14T00:17:40.950Z,86.6
2016-06-14T00:17:50.934Z,86.2
2016-06-14T00:18:00.937Z,86.4
2016-06-14T00:18:10.921Z,86.1
2016-06-14T00:18:20.937Z,86.3
2016-06-14T00:18:30.921Z,86
2016-06-14T00:18:40.921Z,86.1
2016-06-14T00:18:50.921Z,86.3
2016-06-14T00:19:00.909Z,86.1
2016-06-14T00:19:10.893Z,86.3
2016-06-14T00:19:20.893Z,86.3
2016-06-14T00:19:30.737Z,86.2
2016-06-14T00:19:40.893Z,86.3
2016-06-14T00:19:50.893Z,86.3
2016-06-14T00:20:00.881Z,86.2
2016-06-14T00:20:10.881Z,86.4
2016-06-14T00:20:20.865Z,86.6
2016-06-14T00:20:30.865Z,86.1
2016-06-14T00:20:40.849Z,86.6
2016-06-14T00:20:50.865Z,86.2
2016-06-14T00:21:00.852Z,86.2
2016-06-14T00:21:10.837Z,86.1
2016-06-14T00:21:20.837Z,86.7
2016-06-14T00:21:30.837Z,86.5
2016-06-14T00:21:40.837Z,86.2
2016-06-14T00:21:50.821Z,86.5
2016-06-14T00:22:00.840Z,86.3
2016-06-14T00:22:10.824Z,86.4
2016-06-14T00:22:20.808Z,86.6
2016-06-14T00:22:30.808Z,86.3
2016-06-14T00:22:40.793Z,86.3
2016-06-14T00:22:50.793Z,86.5
2016-06-14T00:23:00.796Z,85.9
2016-06-14T00:23:10.796Z,86.3
2016-06-14T00:23:20.796Z,86.2
2016-06-14T00:23:30.780Z,86.7
2016-06-14T00:23:40.765Z,87
2016-06-14T00:23:50.765Z,87.1
2016-06-14T00:24:00.768Z,86.6
2016-06-14T00:24:10.752Z,86.5
2016-06-14T00:24:20.752Z,86.7
2016-06-14T00:24:30.736Z,86.1
2016-06-14T00:24:40.736Z,86.3
2016-06-14T00:24:50.736Z,86.1
2016-06-14T00:25:00.739Z,86.6
2016-06-14T00:25:10.739Z,86.4
2016-06-14T00:25:20.724Z,86.5
2016-06-14T00:25:30.724Z,86.1
2016-06-14T00:25:40.708Z,86.2
2016-06-14T00:25:50.708Z,86.9
2016-06-14T00:26:00.695Z,86.7
2016-06-14T00:26:10.695Z,86.7
2016-06-14T00:26:20.695Z,87.2
2016-06-14T00:26:30.695Z,87.2
2016-06-14T00:26:40.695Z,86.3
2016-06-14T00:26:50.680Z,86.2
2016-06-14T00:27:00.683Z,86.1
2016-06-14T00:27:10.667Z,86.2
2016-06-14T00:27:20.667Z,86.3
2016-06-14T00:27:30.667Z,86.1
2016-06-14T00:27:40.667Z,86.5
2016-06-14T00:27:50.652Z,86.5
2016-06-14T00:28:00.655Z,86.7
2016-06-14T00:28:10.639Z,86.8
2016-06-14T00:28:20.639Z,86.4
2016-06-14T00:28:30.639Z,86.5
2016-06-14T00:28:40.639Z,86.7
2016-06-14T00:28:50.623Z,86.3
2016-06-14T00:29:00.612Z,86.5
2016-06-14T00:29:10.893Z,86.3
2016-06-14T00:29:21.127Z,86.2
2016-06-14T00:29:30.784Z,86.9
2016-06-14T00:29:40.612Z,86.9
2016-06-14T00:29:50.784Z,85.9
2016-06-14T00:30:00.817Z,86
2016-06-14T00:30:10.598Z,86.7
2016-06-14T00:30:20.582Z,86.7
2016-06-14T00:30:30.567Z,86.3
2016-06-14T00:30:40.567Z,87
2016-06-14T00:30:50.582Z,86.7
2016-06-14T00:31:00.570Z,86.5
2016-06-14T00:31:10.554Z,86.3
2016-06-14T00:31:20.554Z,86.9
2016-06-14T00:31:30.539Z,86.6
2016-06-14T00:31:40.539Z,86.7
2016-06-14T00:31:50.554Z,86.6
2016-06-14T00:32:00.543Z,86.5
2016-06-14T00:32:10.543Z,86.9
2016-06-14T00:32:20.527Z,86.5
2016-06-14T00:32:30.511Z,86.4
2016-06-14T00:32:40.511Z,86
2016-06-14T00:32:50.496Z,86.1
2016-06-14T00:33:00.514Z,86.4
2016-06-14T00:33:10.499Z,86.2
2016-06-14T00:33:20.499Z,86.3
2016-06-14T00:33:30.499Z,86.7
2016-06-14T00:33:40.483Z,86.2
2016-06-14T00:33:50.483Z,87
2016-06-14T00:34:00.469Z,86.7
2016-06-14T00:34:10.469Z,86.7
2016-06-14T00:34:20.469Z,86.8
2016-06-14T00:34:30.469Z,86.5
2016-06-14T00:34:40.454Z,86.3
2016-06-14T00:34:50.454Z,86.5
2016-06-14T00:35:00.458Z,86.2
2016-06-14T00:35:10.442Z,86.3
2016-06-14T00:35:20.442Z,86.5
2016-06-14T00:35:30.427Z,86.5
2016-06-14T00:35:40.427Z,86.6
2016-06-14T00:35:50.411Z,86.9
2016-06-14T00:36:00.414Z,86.6
2016-06-14T00:36:10.414Z,86.9
2016-06-14T00:36:20.414Z,86.4
2016-06-14T00:36:30.398Z,86.8
2016-06-14T00:36:40.414Z,86.2
2016-06-14T00:36:50.398Z,86.6
2016-06-14T00:37:00.386Z,86.6
2016-06-14T00:37:10.370Z,86.5
2016-06-14T00:37:20.370Z,86.6
2016-06-14T00:37:30.370Z,86.5
2016-06-14T00:37:40.370Z,86.5
2016-06-14T00:37:50.370Z,86.8
2016-06-14T00:38:00.373Z,86.7
2016-06-14T00:38:10.357Z,86.4
2016-06-14T00:38:20.342Z,86.6
2016-06-14T00:38:30.342Z,86.6
2016-06-14T00:38:40.342Z,86.9
2016-06-14T00:38:50.357Z,87
2016-06-14T00:39:00.345Z,86.9
2016-06-14T00:39:10.329Z,86.7
2016-06-14T00:39:20.314Z,86.7
2016-06-14T00:39:30.314Z,86.2
2016-06-14T00:39:40.314Z,86.5
2016-06-14T00:39:50.314Z,86.2
2016-06-14T00:40:00.302Z,86.6
2016-06-14T00:40:10.302Z,86.6
2016-06-14T00:40:20.302Z,86.7
2016-06-14T00:40:30.286Z,86.3
2016-06-14T00:40:40.286Z,86.3
2016-06-14T00:40:50.271Z,86.3
2016-06-14T00:41:00.273Z,86.4
2016-06-14T00:41:10.273Z,86.3
2016-06-14T00:41:20.116Z,86.2
2016-06-14T00:41:30.257Z,86.1
2016-06-14T00:41:40.257Z,86.5
2016-06-14T00:41:50.241Z,86.3
2016-06-14T00:42:00.244Z,86.7
2016-06-14T00:42:10.088Z,86.6
2016-06-14T00:42:20.229Z,86.9
2016-06-14T00:42:30.229Z,86.7
2016-06-14T00:42:40.229Z,86.5
2016-06-14T00:42:50.213Z,86.3
2016-06-14T00:43:00.217Z,86.2
2016-06-14T00:43:10.217Z,86.2
2016-06-14T00:43:20.217Z,86.7
2016-06-14T00:43:30.202Z,85.7
2016-06-14T00:43:40.186Z,86
2016-06-14T00:43:50.186Z,86.1
2016-06-14T00:44:00.189Z,86.3
2016-06-14T00:44:10.548Z,86.1
2016-06-14T00:44:20.345Z,85.8
2016-06-14T00:44:30.533Z,86
2016-06-14T00:44:40.455Z,86.2
2016-06-14T00:44:51.001Z,86.2
2016-06-14T00:45:00.160Z,86.1
2016-06-14T00:45:10.003Z,86
2016-06-14T00:45:20.972Z,86
2016-06-14T00:45:30.128Z,86.4
2016-06-14T00:45:40.144Z,86.3
2016-06-14T00:45:50.128Z,86.4
2016-06-14T00:46:00.132Z,86.2
2016-06-14T00:46:10.132Z,86.1
2016-06-14T00:46:20.117Z,86.1
2016-06-14T00:46:30.101Z,86.4
2016-06-14T00:46:40.101Z,86.5
2016-06-14T00:46:50.117Z,86.3
2016-06-14T00:47:00.103Z,86.4
2016-06-14T00:47:10.103Z,86.1
2016-06-14T00:47:20.088Z,86.1
2016-06-14T00:47:30.088Z,86.3
2016-06-14T00:47:40.072Z,86
2016-06-14T00:47:50.072Z,86.2
2016-06-14T00:48:00.060Z,86.1
2016-06-14T00:48:10.060Z,86.3
2016-06-14T00:48:20.076Z,86.2
2016-06-14T00:48:30.060Z,86.5
2016-06-14T00:48:40.060Z,86.1
2016-06-14T00:48:50.045Z,86.1
2016-06-14T00:49:00.048Z,86.1
2016-06-14T00:49:10.048Z,86.3
2016-06-14T00:49:20.032Z,86
2016-06-14T00:49:30.032Z,86.1
2016-06-14T00:49:40.016Z,86.6
2016-06-14T00:49:50.016Z,86.1
2016-06-14T00:50:00.019Z,86.2
2016-06-14T00:50:10.004Z,86.4
2016-06-14T00:50:20.004Z,86.2
2016-06-14T00:50:30.004Z,86.3
2016-06-14T00:50:40.004Z,86.2
2016-06-14T00:50:50.004Z,85.6
2016-06-14T00:50:59.976Z,85.9
2016-06-14T00:51:09.976Z,85.9
2016-06-14T00:51:19.976Z,85.8
2016-06-14T00:51:29.976Z,85.6
2016-06-14T00:51:39.976Z,86.3
2016-06-14T00:51:49.960Z,86.3
2016-06-14T00:51:59.963Z,86.4
2016-06-14T00:52:09.963Z,86.2
2016-06-14T00:52:19.932Z,86.4
2016-06-14T00:52:29.932Z,86
2016-06-14T00:52:39.932Z,86.5
2016-06-14T00:52:49.932Z,86.2
2016-06-14T00:52:59.919Z,86.5
2016-06-14T00:53:09.919Z,86.5
2016-06-14T00:53:19.919Z,86.5
2016-06-14T00:53:29.903Z,86.3
2016-06-14T00:53:39.903Z,86.5
2016-06-14T00:53:49.903Z,86.1
2016-06-14T00:53:59.907Z,86.3
2016-06-14T00:54:09.907Z,86
2016-06-14T00:54:19.892Z,86.4
2016-06-14T00:54:29.876Z,86.3
2016-06-14T00:54:39.876Z,86.2
2016-06-14T00:54:49.876Z,86.6
2016-06-14T00:54:59.878Z,86.1
2016-06-14T00:55:09.863Z,86
2016-06-14T00:55:19.863Z,85.9
2016-06-14T00:55:29.847Z,85.6
2016-06-14T00:55:39.847Z,85.8
2016-06-14T00:55:49.831Z,85.6
2016-06-14T00:55:59.835Z,85.7
2016-06-14T00:56:09.835Z,86
2016-06-14T00:56:19.820Z,86.3
2016-06-14T00:56:29.820Z,86.5
2016-06-14T00:56:39.820Z,86.4
2016-06-14T00:56:49.820Z,86.4
2016-06-14T00:56:59.823Z,86.2
2016-06-14T00:57:09.807Z,86.3
2016-06-14T00:57:19.807Z,86.3
2016-06-14T00:57:29.807Z,86
2016-06-14T00:57:39.791Z,86.3
2016-06-14T00:57:49.791Z,86.1
2016-06-14T00:57:59.778Z,85.6
2016-06-14T00:58:09.778Z,86.3
2016-06-14T00:58:19.778Z,86.1
2016-06-14T00:58:29.778Z,85.6
2016-06-14T00:58:39.762Z,85.2
2016-06-14T00:58:49.762Z,85.9
2016-06-14T00:58:59.751Z,85.8
2016-06-14T00:59:09.751Z,86.2
2016-06-14T00:59:20.532Z,86.3
2016-06-14T00:59:30.532Z,86.5
2016-06-14T00:59:40.063Z,86.3
2016-06-14T00:59:49.735Z,86.1
2016-06-14T00:59:59.738Z,86.2
2016-06-14T01:00:09.722Z,86.4
2016-06-14T01:00:19.738Z,86.1
2016-06-14T01:00:30.004Z,85.8
2016-06-14T01:00:39.707Z,86
2016-06-14T01:00:49.707Z,85.9
2016-06-14T01:00:59.694Z,85.7
2016-06-14T01:01:09.694Z,86
2016-06-14T01:01:19.694Z,85.5
2016-06-14T01:01:29.694Z,85.7
2016-06-14T01:01:39.678Z,85.7
2016-06-14T01:01:49.678Z,85.8
2016-06-14T01:01:59.666Z,85.4
2016-06-14T01:02:09.681Z,85.8
2016-06-14T01:02:19.650Z,85.9
2016-06-14T01:02:29.650Z,85.2
2016-06-14T01:02:39.650Z,85.6
2016-06-14T01:02:49.635Z,86.2
2016-06-14T01:02:59.638Z,85.4
2016-06-14T01:03:09.638Z,85.4
2016-06-14T01:03:19.638Z,85.4
2016-06-14T01:03:29.622Z,85.9
2016-06-14T01:03:39.638Z,86.6
2016-06-14T01:03:49.466Z,86.6
2016-06-14T01:03:59.625Z,86.6
2016-06-14T01:04:09.609Z,86.3
2016-06-14T01:04:19.594Z,86
2016-06-14T01:04:29.594Z,86
2016-06-14T01:04:39.578Z,86.3
2016-06-14T01:04:49.594Z,85.6
2016-06-14T01:04:59.582Z,85.6
2016-06-14T01:05:09.582Z,86.1
2016-06-14T01:05:19.566Z,86.5
2016-06-14T01:05:29.582Z,86.1
2016-06-14T01:05:39.566Z,86.4
2016-06-14T01:05:49.551Z,85.8
2016-06-14T01:05:59.553Z,85.8
2016-06-14T01:06:09.537Z,85.7
2016-06-14T01:06:19.553Z,85.9
2016-06-14T01:06:29.537Z,85.9
2016-06-14T01:06:39.537Z,86
2016-06-14T01:06:49.537Z,85.8
2016-06-14T01:06:59.526Z,85.6
2016-06-14T01:07:09.526Z,85.4
2016-06-14T01:07:19.526Z,85.4
2016-06-14T01:07:29.510Z,85.6
2016-06-14T01:07:39.494Z,86.2
2016-06-14T01:07:49.494Z,86.4
2016-06-14T01:07:59.496Z,86.2
2016-06-14T01:08:09.481Z,86.4
2016-06-14T01:08:19.496Z,85.6
2016-06-14T01:08:29.481Z,85.8
2016-06-14T01:08:39.481Z,85.8
2016-06-14T01:08:49.481Z,86
2016-06-14T01:08:59.468Z,86.2
2016-06-14T01:09:09.296Z,86.6
2016-06-14T01:09:19.452Z,85.9
2016-06-14T01:09:29.452Z,85.8
2016-06-14T01:09:39.452Z,85.5
2016-06-14T01:09:49.437Z,85.9
2016-06-14T01:09:59.441Z,86.3
2016-06-14T01:10:09.441Z,86
2016-06-14T01:10:19.425Z,85.4
2016-06-14T01:10:29.425Z,86.3
2016-06-14T01:10:39.425Z,86
2016-06-14T01:10:49.410Z,86
2016-06-14T01:10:59.413Z,86.1
2016-06-14T01:11:09.413Z,86.3
2016-06-14T01:11:19.397Z,86.2
2016-06-14T01:11:29.397Z,85.4
2016-06-14T01:11:39.397Z,85.7
2016-06-14T01:11:49.381Z,85.9
2016-06-14T01:11:59.383Z,85.9
2016-06-14T01:12:09.383Z,85.8
2016-06-14T01:12:19.368Z,86.5
2016-06-14T01:12:29.368Z,86.2
2016-06-14T01:12:39.352Z,86.5
2016-06-14T01:12:49.352Z,87.1
2016-06-14T01:12:59.372Z,86.9
2016-06-14T01:13:09.356Z,86.6
2016-06-14T01:13:19.340Z,86.6
2016-06-14T01:13:29.340Z,86.3
2016-06-14T01:13:39.325Z,85.9
2016-06-14T01:13:49.309Z,86
2016-06-14T01:13:59.312Z,86.3
2016-06-14T01:14:09.312Z,86.1
2016-06-14T01:14:19.390Z,86.3
2016-06-14T01:14:29.656Z,86
2016-06-14T01:14:39.687Z,86
2016-06-14T01:14:49.531Z,86.2
2016-06-14T01:14:59.503Z,85.8
2016-06-14T01:15:09.284Z,86.5
2016-06-14T01:15:19.659Z,86.6
2016-06-14T01:15:29.284Z,86.3
2016-06-14T01:15:39.284Z,86
2016-06-14T01:15:49.268Z,86
2016-06-14T01:15:59.270Z,85.8
2016-06-14T01:16:09.255Z,85.6
2016-06-14T01:16:19.255Z,85.7
2016-06-14T01:16:29.239Z,85.7
2016-06-14T01:16:39.239Z,85.8
2016-06-14T01:16:49.239Z,86.4
2016-06-14T01:16:59.243Z,86.2
2016-06-14T01:17:09.243Z,86.2
2016-06-14T01:17:19.227Z,86.2
2016-06-14T01:17:29.227Z,85.6
2016-06-14T01:17:39.227Z,86.3
2016-06-14T01:17:49.212Z,86.2
2016-06-14T01:17:59.216Z,86.3
2016-06-14T01:18:09.216Z,86.1
2016-06-14T01:18:19.185Z,86.2
2016-06-14T01:18:29.200Z,86.4
2016-06-14T01:18:39.185Z,86
2016-06-14T01:18:49.185Z,85.7
2016-06-14T01:18:59.187Z,85.9
2016-06-14T01:19:09.187Z,86.1
2016-06-14T01:19:19.171Z,86.1
2016-06-14T01:19:29.171Z,86
2016-06-14T01:19:39.155Z,86.3
2016-06-14T01:19:49.155Z,86.1
2016-06-14T01:19:59.143Z,85.6
2016-06-14T01:20:09.143Z,85.6
2016-06-14T01:20:19.143Z,85.5
2016-06-14T01:20:29.143Z,85.6
2016-06-14T01:20:39.127Z,85.7
2016-06-14T01:20:49.127Z,86.5
2016-06-14T01:20:59.114Z,86.2
2016-06-14T01:21:09.130Z,85.8
2016-06-14T01:21:19.114Z,85.9
2016-06-14T01:21:29.114Z,85.7
2016-06-14T01:21:39.099Z,85.5
2016-06-14T01:21:49.083Z,85.4
2016-06-14T01:21:59.087Z,85.7
2016-06-14T01:22:09.087Z,86.2
2016-06-14T01:22:19.103Z,86.3
2016-06-14T01:22:29.087Z,85.9
2016-06-14T01:22:39.072Z,85.7
2016-06-14T01:22:49.072Z,85.7
2016-06-14T01:22:58.902Z,85.7
2016-06-14T01:23:09.058Z,85.4
2016-06-14T01:23:19.042Z,85.6
2016-06-14T01:23:29.042Z,85.4
2016-06-14T01:23:39.042Z,85.8
2016-06-14T01:23:49.042Z,85.3
2016-06-14T01:23:59.045Z,85.8
2016-06-14T01:24:09.030Z,85.7
2016-06-14T01:24:19.014Z,85.9
2016-06-14T01:24:28.858Z,85.6
2016-06-14T01:24:39.014Z,85.4
2016-06-14T01:24:49.014Z,85.7
2016-06-14T01:24:59.002Z,86
2016-06-14T01:25:09.002Z,85.7
2016-06-14T01:25:18.987Z,85.4
2016-06-14T01:25:28.987Z,85.6
2016-06-14T01:25:38.987Z,85.5
2016-06-14T01:25:48.987Z,85.6
2016-06-14T01:25:58.974Z,86.3
2016-06-14T01:26:08.974Z,86
2016-06-14T01:26:18.959Z,86.4
2016-06-14T01:26:28.959Z,86.3
2016-06-14T01:26:38.959Z,86.2
2016-06-14T01:26:48.943Z,86.4
2016-06-14T01:26:58.946Z,86.5
2016-06-14T01:27:08.946Z,86.1
2016-06-14T01:27:18.946Z,85.8
2016-06-14T01:27:28.930Z,85.8
2016-06-14T01:27:38.930Z,86.2
2016-06-14T01:27:48.915Z,85.4
2016-06-14T01:27:58.918Z,85.4
2016-06-14T01:28:08.902Z,85.8
2016-06-14T01:28:18.902Z,86.1
2016-06-14T01:28:28.902Z,86.3
2016-06-14T01:28:38.886Z,86.5
2016-06-14T01:28:48.886Z,86
2016-06-14T01:28:58.889Z,86.1
2016-06-14T01:29:08.889Z,86.2
2016-06-14T01:29:18.889Z,86
2016-06-14T01:29:28.889Z,86.2
2016-06-14T01:29:39.514Z,86
2016-06-14T01:29:49.124Z,85.7
2016-06-14T01:29:58.861Z,86.4
2016-06-14T01:30:08.861Z,86.3
2016-06-14T01:30:19.392Z,86.3
2016-06-14T01:30:28.846Z,86.2
2016-06-14T01:30:38.846Z,86.3
2016-06-14T01:30:48.846Z,86
2016-06-14T01:30:58.833Z,86.3
2016-06-14T01:31:08.833Z,86.1
2016-06-14T01:31:18.817Z,86.3
2016-06-14T01:31:28.817Z,86
2016-06-14T01:31:38.817Z,85.8
2016-06-14T01:31:48.802Z,86.3
2016-06-14T01:31:58.805Z,85.8
2016-06-14T01:32:08.789Z,85.5
2016-06-14T01:32:18.805Z,85.3
2016-06-14T01:32:28.789Z,85.9
2016-06-14T01:32:38.789Z,86
2016-06-14T01:32:48.789Z,85.9
2016-06-14T01:32:58.776Z,86.2
2016-06-14T01:33:08.761Z,85.9
2016-06-14T01:33:18.761Z,85.9
2016-06-14T01:33:28.761Z,85.2
2016-06-14T01:33:38.761Z,85.4
2016-06-14T01:33:48.761Z,85.4
2016-06-14T01:33:58.748Z,85.9
2016-06-14T01:34:08.748Z,86.2
2016-06-14T01:34:18.733Z,86.1
2016-06-14T01:34:28.733Z,86.2
2016-06-14T01:34:38.733Z,85.7
2016-06-14T01:34:48.717Z,85.7
2016-06-14T01:34:58.717Z,85.7
2016-06-14T01:35:08.704Z,85.4
2016-06-14T01:35:18.720Z,85.3
2016-06-14T01:35:28.704Z,85.2
2016-06-14T01:35:38.704Z,85.4
2016-06-14T01:35:48.689Z,85.5
2016-06-14T01:35:58.689Z,86.2
2016-06-14T01:36:08.693Z,86.1
2016-06-14T01:36:18.677Z,86.3
2016-06-14T01:36:28.661Z,86.3
2016-06-14T01:36:38.661Z,85.7
2016-06-14T01:36:48.661Z,85.4
2016-06-14T01:36:58.661Z,85.4
2016-06-14T01:37:08.648Z,85.5
2016-06-14T01:37:18.648Z,85.7
2016-06-14T01:37:28.648Z,86.2
2016-06-14T01:37:38.632Z,86.2
2016-06-14T01:37:48.632Z,86.3
2016-06-14T01:37:58.617Z,86.1
2016-06-14T01:38:08.620Z,86
2016-06-14T01:38:18.620Z,86.5
2016-06-14T01:38:28.620Z,85.9
2016-06-14T01:38:38.604Z,85.8
2016-06-14T01:38:48.604Z,85.8
2016-06-14T01:38:58.604Z,85.6
2016-06-14T01:39:08.608Z,86.2
2016-06-14T01:39:18.592Z,86.5
2016-06-14T01:39:28.592Z,86.4
2016-06-14T01:39:38.577Z,86.6
2016-06-14T01:39:48.561Z,86.4
2016-06-14T01:39:58.561Z,85.9
2016-06-14T01:40:08.564Z,86.2
2016-06-14T01:40:18.564Z,86.5
2016-06-14T01:40:28.564Z,86.1
2016-06-14T01:40:38.548Z,86.1
2016-06-14T01:40:48.548Z,86.2
2016-06-14T01:40:58.533Z,86.1
2016-06-14T01:41:08.519Z,86.5
2016-06-14T01:41:18.519Z,86.2
2016-06-14T01:41:28.519Z,86.4
2016-06-14T01:41:38.519Z,85.7
2016-06-14T01:41:48.519Z,85.9
2016-06-14T01:41:58.519Z,85.4
2016-06-14T01:42:08.508Z,85.4
2016-06-14T01:42:18.508Z,85.9
2016-06-14T01:42:28.492Z,85.9
2016-06-14T01:42:38.508Z,85.6
2016-06-14T01:42:48.492Z,85.8
2016-06-14T01:42:58.492Z,85.9
2016-06-14T01:43:08.479Z,85.5
2016-06-14T01:43:18.479Z,85.9
2016-06-14T01:43:28.479Z,85.9
2016-06-14T01:43:38.464Z,85.7
2016-06-14T01:43:48.448Z,85.8
2016-06-14T01:43:58.448Z,85.6
2016-06-14T01:44:08.451Z,86
2016-06-14T01:44:18.451Z,85.6
2016-06-14T01:44:28.451Z,85.7
2016-06-14T01:44:38.435Z,85.6
2016-06-14T01:44:48.435Z,85.8
2016-06-14T01:44:58.420Z,85.9
2016-06-14T01:45:08.423Z,85.8
2016-06-14T01:45:18.423Z,86
2016-06-14T01:45:28.798Z,86.3
2016-06-14T01:45:38.298Z,86
2016-06-14T01:45:48.407Z,86
2016-06-14T01:45:58.407Z,85.9
2016-06-14T01:46:08.395Z,85.9
2016-06-14T01:46:18.395Z,85.5
2016-06-14T01:46:28.395Z,85.4
2016-06-14T01:46:38.379Z,85.6
2016-06-14T01:46:48.379Z,85.9
2016-06-14T01:46:58.363Z,85.5
2016-06-14T01:47:08.352Z,85.6
2016-06-14T01:47:18.367Z,85.7
2016-06-14T01:47:28.352Z,85.5
2016-06-14T01:47:38.352Z,85.9
2016-06-14T01:47:48.352Z,85.6
2016-06-14T01:47:58.336Z,85.9
2016-06-14T01:48:08.338Z,85.8
2016-06-14T01:48:18.338Z,85.9
2016-06-14T01:48:28.322Z,85.6
2016-06-14T01:48:38.322Z,85.9
2016-06-14T01:48:48.307Z,85.3
2016-06-14T01:48:58.307Z,85.4
2016-06-14T01:49:08.310Z,85.6
2016-06-14T01:49:18.294Z,85.9
2016-06-14T01:49:28.294Z,85.9
2016-06-14T01:49:38.294Z,85.9
2016-06-14T01:49:48.294Z,85.8
2016-06-14T01:49:58.294Z,85.8
2016-06-14T01:50:08.282Z,85.8
2016-06-14T01:50:18.282Z,85.9
2016-06-14T01:50:28.266Z,85.3
2016-06-14T01:50:38.250Z,85.9
2016-06-14T01:50:48.250Z,85.8
2016-06-14T01:50:58.250Z,85.6
2016-06-14T01:51:08.254Z,85.9
2016-06-14T01:51:18.254Z,86.3
2016-06-14T01:51:28.254Z,86.1
2016-06-14T01:51:38.223Z,86.4
2016-06-14T01:51:48.239Z,86.4
2016-06-14T01:51:58.223Z,85.9
2016-06-14T01:52:08.241Z,86.5
2016-06-14T01:52:18.225Z,86.2
2016-06-14T01:52:28.209Z,86.3
2016-06-14T01:52:38.209Z,86.1
2016-06-14T01:52:48.209Z,86.6
2016-06-14T01:52:58.194Z,86.6
2016-06-14T01:53:08.198Z,86.3
2016-06-14T01:53:18.198Z,85.4
2016-06-14T01:53:28.198Z,85.2
2016-06-14T01:53:38.167Z,85.4
2016-06-14T01:53:48.182Z,86
2016-06-14T01:53:58.167Z,86.1
2016-06-14T01:54:08.153Z,86.1
2016-06-14T01:54:18.153Z,86.1
2016-06-14T01:54:28.153Z,86.3
2016-06-14T01:54:38.153Z,86
2016-06-14T01:54:48.137Z,85.9
2016-06-14T01:54:58.137Z,86.5
2016-06-14T01:55:08.126Z,85.9
2016-06-14T01:55:18.126Z,85.8
2016-06-14T01:55:28.126Z,85.8
2016-06-14T01:55:38.126Z,85.8
2016-06-14T01:55:48.110Z,85.7
2016-06-14T01:55:58.110Z,86.2
2016-06-14T01:56:08.113Z,85.9
2016-06-14T01:56:18.113Z,85.8
2016-06-14T01:56:28.097Z,85.6
2016-06-14T01:56:38.082Z,86
2016-06-14T01:56:48.082Z,86.2
2016-06-14T01:56:58.082Z,86.3
2016-06-14T01:57:08.069Z,85.8
2016-06-14T01:57:17.929Z,85.9
2016-06-14T01:57:28.054Z,85.9
2016-06-14T01:57:38.069Z,85.8
2016-06-14T01:57:48.054Z,85.9
2016-06-14T01:57:58.054Z,85.9
2016-06-14T01:58:08.057Z,85.8
2016-06-14T01:58:18.041Z,85.9
2016-06-14T01:58:28.025Z,85.6
2016-06-14T01:58:38.025Z,85.9
2016-06-14T01:58:48.010Z,85.5
2016-06-14T01:58:58.025Z,85.7
2016-06-14T01:59:08.013Z,85.6
2016-06-14T01:59:17.872Z,85.6
2016-06-14T01:59:28.013Z,85.8
2016-06-14T01:59:37.997Z,85.7
2016-06-14T01:59:48.169Z,85.7
2016-06-14T01:59:58.716Z,85.7
2016-06-14T02:00:08.313Z,86.1
2016-06-14T02:00:18.719Z,85.8
2016-06-14T02:00:27.984Z,85.6
2016-06-14T02:00:37.828Z,85.4
2016-06-14T02:00:47.969Z,85.5
2016-06-14T02:00:57.969Z,85.7
2016-06-14T02:01:07.972Z,85.8
2016-06-14T02:01:17.956Z,86
2016-06-14T02:01:27.956Z,86.4
2016-06-14T02:01:37.941Z,85.4
2016-06-14T02:01:47.941Z,85.4
2016-06-14T02:01:57.925Z,85.4
2016-06-14T02:02:07.772Z,85.7
2016-06-14T02:02:17.928Z,85.9
2016-06-14T02:02:27.928Z,85.3
2016-06-14T02:02:37.928Z,85.4
2016-06-14T02:02:47.912Z,85.8
2016-06-14T02:02:57.897Z,85.7
2016-06-14T02:03:07.900Z,85.6
2016-06-14T02:03:17.884Z,86
2016-06-14T02:03:27.884Z,85.6
2016-06-14T02:03:37.884Z,85.4
2016-06-14T02:03:47.884Z,84.9
2016-06-14T02:03:57.868Z,85.7
2016-06-14T02:04:07.872Z,85.4
2016-06-14T02:04:17.872Z,85.5
2016-06-14T02:04:27.872Z,86
2016-06-14T02:04:37.872Z,85.9
2016-06-14T02:04:47.857Z,85.4
2016-06-14T02:04:57.841Z,85.4
2016-06-14T02:05:07.843Z,85.9
2016-06-14T02:05:17.828Z,86.2
2016-06-14T02:05:27.828Z,86.2
2016-06-14T02:05:37.828Z,85.4
2016-06-14T02:05:47.671Z,86
2016-06-14T02:05:57.828Z,86
2016-06-14T02:06:07.816Z,86.2
2016-06-14T02:06:17.800Z,86
2016-06-14T02:06:27.800Z,86.1
2016-06-14T02:06:37.800Z,85.8
2016-06-14T02:06:47.785Z,85.6
2016-06-14T02:06:57.785Z,85.3
2016-06-14T02:07:07.788Z,85.6
2016-06-14T02:07:17.803Z,85.8
2016-06-14T02:07:27.772Z,85.4
2016-06-14T02:07:37.772Z,85.4
2016-06-14T02:07:47.772Z,85.5
2016-06-14T02:07:57.772Z,85.8
2016-06-14T02:08:07.759Z,85.8
2016-06-14T02:08:17.744Z,85.9
2016-06-14T02:08:27.744Z,85.9
2016-06-14T02:08:37.744Z,85.4
2016-06-14T02:08:47.728Z,85.5
2016-06-14T02:08:57.744Z,85.6
2016-06-14T02:09:07.731Z,85.7
2016-06-14T02:09:17.731Z,85.8
2016-06-14T02:09:27.716Z,85.3
2016-06-14T02:09:37.700Z,85.5
2016-06-14T02:09:47.700Z,86
2016-06-14T02:09:57.700Z,85.9
2016-06-14T02:10:07.703Z,86
2016-06-14T02:10:17.703Z,85.8
2016-06-14T02:10:27.687Z,85.8
2016-06-14T02:10:37.687Z,85.8
2016-06-14T02:10:47.687Z,85.8
2016-06-14T02:10:57.672Z,86
2016-06-14T02:11:07.659Z,85.6
2016-06-14T02:11:17.659Z,85.5
2016-06-14T02:11:27.659Z,86
2016-06-14T02:11:37.659Z,85.9
2016-06-14T02:11:47.659Z,85.6
2016-06-14T02:11:57.643Z,85.4
2016-06-14T02:12:07.662Z,85.4
2016-06-14T02:12:17.631Z,86.2
2016-06-14T02:12:27.631Z,85.7
2016-06-14T02:12:37.631Z,85.9
2016-06-14T02:12:47.615Z,85.8
2016-06-14T02:12:57.631Z,85.9
2016-06-14T02:13:07.618Z,85.5
2016-06-14T02:13:17.603Z,85.6
2016-06-14T02:13:27.603Z,85.4
2016-06-14T02:13:37.587Z,85.5
2016-06-14T02:13:47.587Z,85.3